sensor_id;sensor_type;location;lat;lon;timestamp;pressure;altitude;pressure_sealevel;temperature;humidity
72024;BME280;59889;50.700;5.440;2022-10-31T00:00:40;100542.33;;;25.18;37.56
72024;BME280;59889;50.700;5.440;2022-10-31T00:03:05;100539.87;;;25.38;37.62
72024;BME280;59889;50.700;5.440;2022-10-31T00:05:30;100538.80;;;25.42;37.55
72024;BME280;59889;50.700;5.440;2022-10-31T00:07:56;100541.21;;;25.47;37.49
72024;BME280;59889;50.700;5.440;2022-10-31T00:10:21;100540.56;;;25.14;37.61
72024;BME280;59889;50.700;5.440;2022-10-31T00:12:46;100536.67;;;25.17;37.57
72024;BME280;59889;50.700;5.440;2022-10-31T00:15:11;100536.07;;;25.10;37.65
72024;BME280;59889;50.700;5.440;2022-10-31T00:17:37;100534.92;;;25.34;37.65
72024;BME280;59889;50.700;5.440;2022-10-31T00:20:03;100539.03;;;25.15;37.59
72024;BME280;59889;50.700;5.440;2022-10-31T00:22:28;100539.77;;;25.36;37.63
72024;BME280;59889;50.700;5.440;2022-10-31T00:24:53;100538.95;;;25.30;37.74
72024;BME280;59889;50.700;5.440;2022-10-31T00:27:18;100536.81;;;25.33;37.70
72024;BME280;59889;50.700;5.440;2022-10-31T00:29:43;100538.78;;;25.12;37.65
72024;BME280;59889;50.700;5.440;2022-10-31T00:32:08;100538.62;;;25.23;37.83
72024;BME280;59889;50.700;5.440;2022-10-31T00:34:33;100536.04;;;25.42;37.59
72024;BME280;59889;50.700;5.440;2022-10-31T00:36:59;100534.37;;;25.32;37.70
72024;BME280;59889;50.700;5.440;2022-10-31T00:39:25;100535.04;;;25.34;37.69
72024;BME280;59889;50.700;5.440;2022-10-31T00:41:50;100534.67;;;24.93;37.62
72024;BME280;59889;50.700;5.440;2022-10-31T00:44:15;100537.34;;;25.32;37.74
72024;BME280;59889;50.700;5.440;2022-10-31T00:46:41;100537.58;;;25.37;37.66
72024;BME280;59889;50.700;5.440;2022-10-31T00:49:07;100538.79;;;25.10;37.72
72024;BME280;59889;50.700;5.440;2022-10-31T00:51:32;100538.13;;;25.04;37.80
72024;BME280;59889;50.700;5.440;2022-10-31T00:53:57;100534.13;;;25.38;37.69
72024;BME280;59889;50.700;5.440;2022-10-31T00:56:22;100535.18;;;25.05;37.82
72024;BME280;59889;50.700;5.440;2022-10-31T00:58:47;100532.59;;;25.00;37.56
72024;BME280;59889;50.700;5.440;2022-10-31T01:01:12;100531.17;;;25.24;37.54
72024;BME280;59889;50.700;5.440;2022-10-31T01:03:38;100530.03;;;25.46;37.55
72024;BME280;59889;50.700;5.440;2022-10-31T01:06:05;100530.00;;;25.13;37.69
72024;BME280;59889;50.700;5.440;2022-10-31T01:08:28;100525.89;;;24.96;37.63
72024;BME280;59889;50.700;5.440;2022-10-31T01:11:04;100523.04;;;25.26;37.53
72024;BME280;59889;50.700;5.440;2022-10-31T01:13:18;100523.56;;;25.53;37.47
72024;BME280;59889;50.700;5.440;2022-10-31T01:15:44;100525.05;;;25.03;37.49
72024;BME280;59889;50.700;5.440;2022-10-31T01:18:09;100528.73;;;25.16;37.65
72024;BME280;59889;50.700;5.440;2022-10-31T01:20:35;100523.70;;;25.23;37.58
72024;BME280;59889;50.700;5.440;2022-10-31T01:23:00;100518.35;;;25.23;37.59
72024;BME280;59889;50.700;5.440;2022-10-31T01:25:26;100511.90;;;25.17;37.65
72024;BME280;59889;50.700;5.440;2022-10-31T01:27:51;100507.93;;;25.48;37.55
72024;BME280;59889;50.700;5.440;2022-10-31T01:30:16;100509.61;;;25.23;37.57
72024;BME280;59889;50.700;5.440;2022-10-31T01:32:41;100508.87;;;24.96;37.62
72024;BME280;59889;50.700;5.440;2022-10-31T01:35:06;100509.01;;;25.48;37.55
72024;BME280;59889;50.700;5.440;2022-10-31T01:37:32;100509.18;;;25.42;37.63
72024;BME280;59889;50.700;5.440;2022-10-31T01:39:56;100510.22;;;24.92;37.65
72024;BME280;59889;50.700;5.440;2022-10-31T01:42:23;100504.59;;;25.42;37.66
72024;BME280;59889;50.700;5.440;2022-10-31T01:44:52;100501.03;;;24.96;37.61
72024;BME280;59889;50.700;5.440;2022-10-31T01:47:16;100503.96;;;25.50;37.54
72024;BME280;59889;50.700;5.440;2022-10-31T01:49:46;100503.11;;;25.45;37.59
72024;BME280;59889;50.700;5.440;2022-10-31T01:52:05;100502.05;;;25.22;37.58
72024;BME280;59889;50.700;5.440;2022-10-31T01:54:31;100510.66;;;25.41;37.66
72024;BME280;59889;50.700;5.440;2022-10-31T01:56:55;100515.85;;;25.42;37.62
72024;BME280;59889;50.700;5.440;2022-10-31T01:59:20;100521.23;;;25.16;37.65
72024;BME280;59889;50.700;5.440;2022-10-31T02:01:43;100521.19;;;24.97;37.59
72024;BME280;59889;50.700;5.440;2022-10-31T02:04:08;100517.60;;;25.44;37.62
72024;BME280;59889;50.700;5.440;2022-10-31T02:06:37;100511.22;;;25.10;37.76
72024;BME280;59889;50.700;5.440;2022-10-31T02:09:00;100512.35;;;25.11;37.77
72024;BME280;59889;50.700;5.440;2022-10-31T02:11:25;100514.65;;;25.48;37.55
72024;BME280;59889;50.700;5.440;2022-10-31T02:13:50;100513.00;;;25.48;37.55
72024;BME280;59889;50.700;5.440;2022-10-31T02:16:14;100509.44;;;25.43;37.61
72024;BME280;59889;50.700;5.440;2022-10-31T02:18:41;100504.94;;;25.17;37.63
72024;BME280;59889;50.700;5.440;2022-10-31T02:21:12;100505.15;;;25.20;37.58
72024;BME280;59889;50.700;5.440;2022-10-31T02:23:45;100502.79;;;25.25;37.52
72024;BME280;59889;50.700;5.440;2022-10-31T02:26:09;100501.07;;;25.24;37.55
72024;BME280;59889;50.700;5.440;2022-10-31T02:28:34;100499.09;;;25.45;37.56
72024;BME280;59889;50.700;5.440;2022-10-31T02:31:01;100496.90;;;25.10;37.74
72024;BME280;59889;50.700;5.440;2022-10-31T02:33:18;100494.82;;;25.45;37.58
72024;BME280;59889;50.700;5.440;2022-10-31T02:35:49;100495.81;;;25.23;37.54
72024;BME280;59889;50.700;5.440;2022-10-31T02:38:07;100493.79;;;25.47;37.56
72024;BME280;59889;50.700;5.440;2022-10-31T02:40:29;100489.83;;;25.18;37.62
72024;BME280;59889;50.700;5.440;2022-10-31T02:42:58;100481.23;;;25.19;37.60
72024;BME280;59889;50.700;5.440;2022-10-31T02:45:20;100483.73;;;25.46;37.52
72024;BME280;59889;50.700;5.440;2022-10-31T02:47:42;100481.58;;;24.91;37.64
72024;BME280;59889;50.700;5.440;2022-10-31T02:50:13;100478.21;;;25.42;37.58
72024;BME280;59889;50.700;5.440;2022-10-31T02:52:34;100480.20;;;25.25;37.51
72024;BME280;59889;50.700;5.440;2022-10-31T02:54:58;100476.86;;;25.05;37.80
72024;BME280;59889;50.700;5.440;2022-10-31T02:57:25;100472.83;;;25.18;37.62
72024;BME280;59889;50.700;5.440;2022-10-31T02:59:52;100467.85;;;25.44;37.59
72024;BME280;59889;50.700;5.440;2022-10-31T03:02:27;100464.42;;;25.21;37.54
72024;BME280;59889;50.700;5.440;2022-10-31T03:04:56;100465.18;;;25.26;37.51
72024;BME280;59889;50.700;5.440;2022-10-31T03:07:10;100467.39;;;25.45;37.58
72024;BME280;59889;50.700;5.440;2022-10-31T03:09:35;100461.33;;;25.03;37.47
72024;BME280;59889;50.700;5.440;2022-10-31T03:11:58;100459.06;;;25.26;37.48
72024;BME280;59889;50.700;5.440;2022-10-31T03:14:26;100455.65;;;25.20;37.55
72024;BME280;59889;50.700;5.440;2022-10-31T03:16:48;100454.43;;;25.26;37.48
72024;BME280;59889;50.700;5.440;2022-10-31T03:19:14;100454.98;;;25.47;37.49
72024;BME280;59889;50.700;5.440;2022-10-31T03:21:41;100452.91;;;24.95;37.57
72024;BME280;59889;50.700;5.440;2022-10-31T03:24:04;100454.44;;;24.94;37.57
72024;BME280;59889;50.700;5.440;2022-10-31T03:26:28;100455.92;;;25.18;37.59
72024;BME280;59889;50.700;5.440;2022-10-31T03:28:56;100452.67;;;25.41;37.60
72024;BME280;59889;50.700;5.440;2022-10-31T03:31:19;100455.55;;;25.43;37.55
72024;BME280;59889;50.700;5.440;2022-10-31T03:33:44;100456.88;;;24.97;37.53
72024;BME280;59889;50.700;5.440;2022-10-31T03:36:11;100456.04;;;25.34;37.66
72024;BME280;59889;50.700;5.440;2022-10-31T03:38:35;100458.68;;;25.36;37.64
72024;BME280;59889;50.700;5.440;2022-10-31T03:41:00;100457.25;;;25.11;37.66
72024;BME280;59889;50.700;5.440;2022-10-31T03:43:26;100456.01;;;25.29;37.73
72024;BME280;59889;50.700;5.440;2022-10-31T03:45:49;100454.87;;;25.01;37.76
72024;BME280;59889;50.700;5.440;2022-10-31T03:48:16;100452.13;;;25.26;37.76
72024;BME280;59889;50.700;5.440;2022-10-31T03:50:45;100451.62;;;25.36;37.63
72024;BME280;59889;50.700;5.440;2022-10-31T03:53:09;100451.87;;;25.33;37.67
72024;BME280;59889;50.700;5.440;2022-10-31T03:55:32;100452.51;;;25.30;37.72
72024;BME280;59889;50.700;5.440;2022-10-31T03:57:59;100453.62;;;25.37;37.62
72024;BME280;59889;50.700;5.440;2022-10-31T04:00:19;100451.28;;;25.04;37.75
72024;BME280;59889;50.700;5.440;2022-10-31T04:02:49;100454.32;;;25.30;37.70
72024;BME280;59889;50.700;5.440;2022-10-31T04:05:10;100456.50;;;25.08;37.69
72024;BME280;59889;50.700;5.440;2022-10-31T04:07:38;100452.61;;;25.10;37.65
72024;BME280;59889;50.700;5.440;2022-10-31T04:10:02;100450.56;;;25.22;37.79
72024;BME280;59889;50.700;5.440;2022-10-31T04:12:26;100454.11;;;25.24;37.77
72024;BME280;59889;50.700;5.440;2022-10-31T04:14:51;100452.03;;;25.30;37.72
72024;BME280;59889;50.700;5.440;2022-10-31T04:17:18;100452.00;;;25.02;37.75
72024;BME280;59889;50.700;5.440;2022-10-31T04:19:40;100449.75;;;25.07;37.70
72024;BME280;59889;50.700;5.440;2022-10-31T04:22:06;100448.06;;;25.23;37.79
72024;BME280;59889;50.700;5.440;2022-10-31T04:24:31;100446.84;;;25.01;37.75
72024;BME280;59889;50.700;5.440;2022-10-31T04:26:56;100447.13;;;25.01;37.76
72024;BME280;59889;50.700;5.440;2022-10-31T04:29:21;100444.23;;;25.27;37.73
72024;BME280;59889;50.700;5.440;2022-10-31T04:31:46;100444.26;;;24.98;37.80
72024;BME280;59889;50.700;5.440;2022-10-31T04:34:11;100443.93;;;25.21;37.82
72024;BME280;59889;50.700;5.440;2022-10-31T04:36:36;100444.55;;;25.13;37.98
72024;BME280;59889;50.700;5.440;2022-10-31T04:39:01;100440.12;;;24.95;37.82
72024;BME280;59889;50.700;5.440;2022-10-31T04:41:26;100436.24;;;25.30;37.70
72024;BME280;59889;50.700;5.440;2022-10-31T04:43:51;100438.46;;;25.26;37.75
72024;BME280;59889;50.700;5.440;2022-10-31T04:46:16;100439.81;;;24.85;37.96
72024;BME280;59889;50.700;5.440;2022-10-31T04:48:41;100443.68;;;25.25;37.76
72024;BME280;59889;50.700;5.440;2022-10-31T04:51:07;100444.80;;;24.86;37.93
72024;BME280;59889;50.700;5.440;2022-10-31T04:53:32;100446.06;;;25.19;37.82
72024;BME280;59889;50.700;5.440;2022-10-31T04:55:58;100448.92;;;25.21;37.79
72024;BME280;59889;50.700;5.440;2022-10-31T04:58:22;100443.01;;;25.20;37.78
72024;BME280;59889;50.700;5.440;2022-10-31T05:00:47;100439.26;;;25.21;37.78
72024;BME280;59889;50.700;5.440;2022-10-31T05:03:12;100444.44;;;24.97;37.79
72024;BME280;59889;50.700;5.440;2022-10-31T05:05:37;100441.20;;;25.25;37.76
72024;BME280;59889;50.700;5.440;2022-10-31T05:08:02;100442.66;;;24.90;37.87
72024;BME280;59889;50.700;5.440;2022-10-31T05:10:29;100446.85;;;25.19;37.81
72024;BME280;59889;50.700;5.440;2022-10-31T05:12:54;100439.28;;;25.24;37.75
72024;BME280;59889;50.700;5.440;2022-10-31T05:15:18;100432.87;;;24.97;37.76
72024;BME280;59889;50.700;5.440;2022-10-31T05:17:43;100433.83;;;24.70;37.79
72024;BME280;59889;50.700;5.440;2022-10-31T05:20:08;100435.88;;;25.30;37.64
72024;BME280;59889;50.700;5.440;2022-10-31T05:22:32;100433.86;;;25.04;37.67
72024;BME280;59889;50.700;5.440;2022-10-31T05:24:58;100426.27;;;24.89;37.84
72024;BME280;59889;50.700;5.440;2022-10-31T05:27:23;100426.38;;;25.20;37.76
72024;BME280;59889;50.700;5.440;2022-10-31T05:29:48;100422.14;;;24.92;37.83
72024;BME280;59889;50.700;5.440;2022-10-31T05:32:13;100414.43;;;25.17;37.78
72024;BME280;59889;50.700;5.440;2022-10-31T05:34:38;100404.13;;;25.18;37.77
72024;BME280;59889;50.700;5.440;2022-10-31T05:37:03;100400.10;;;25.16;37.79
72024;BME280;59889;50.700;5.440;2022-10-31T05:39:28;100396.60;;;25.21;37.73
72024;BME280;59889;50.700;5.440;2022-10-31T05:41:54;100397.45;;;25.20;37.73
72024;BME280;59889;50.700;5.440;2022-10-31T05:44:19;100400.48;;;25.19;37.75
72024;BME280;59889;50.700;5.440;2022-10-31T05:46:46;100401.56;;;25.24;37.68
72024;BME280;59889;50.700;5.440;2022-10-31T05:49:09;100402.32;;;25.18;37.76
72024;BME280;59889;50.700;5.440;2022-10-31T05:51:34;100405.84;;;25.37;37.82
72024;BME280;59889;50.700;5.440;2022-10-31T05:53:59;100400.48;;;25.15;37.79
72024;BME280;59889;50.700;5.440;2022-10-31T05:56:24;100393.64;;;24.88;37.84
72024;BME280;59889;50.700;5.440;2022-10-31T05:58:49;100389.52;;;25.15;37.79
72024;BME280;59889;50.700;5.440;2022-10-31T06:01:14;100391.93;;;25.08;37.88
72024;BME280;59889;50.700;5.440;2022-10-31T06:03:39;100391.49;;;25.19;37.73
72024;BME280;59889;50.700;5.440;2022-10-31T06:06:05;100393.66;;;25.10;37.85
72024;BME280;59889;50.700;5.440;2022-10-31T06:08:30;100393.02;;;24.87;37.83
72024;BME280;59889;50.700;5.440;2022-10-31T06:10:55;100392.08;;;25.18;37.72
72024;BME280;59889;50.700;5.440;2022-10-31T06:13:20;100393.30;;;25.09;37.85
72024;BME280;59889;50.700;5.440;2022-10-31T06:15:45;100393.15;;;24.84;38.18
72024;BME280;59889;50.700;5.440;2022-10-31T06:18:10;100394.21;;;24.97;39.21
72024;BME280;59889;50.700;5.440;2022-10-31T06:20:36;100396.44;;;24.72;39.09
72024;BME280;59889;50.700;5.440;2022-10-31T06:23:00;100391.76;;;24.68;38.97
72024;BME280;59889;50.700;5.440;2022-10-31T06:25:25;100388.55;;;24.84;38.83
72024;BME280;59889;50.700;5.440;2022-10-31T06:27:50;100387.38;;;24.57;38.70
72024;BME280;59889;50.700;5.440;2022-10-31T06:30:16;100385.41;;;24.70;38.68
72024;BME280;59889;50.700;5.440;2022-10-31T06:32:41;100391.04;;;24.73;38.39
72024;BME280;59889;50.700;5.440;2022-10-31T06:35:07;100396.12;;;24.72;38.29
72024;BME280;59889;50.700;5.440;2022-10-31T06:37:32;100397.92;;;24.75;38.07
72024;BME280;59889;50.700;5.440;2022-10-31T06:39:57;100400.55;;;24.72;37.93
72024;BME280;59889;50.700;5.440;2022-10-31T06:42:22;100402.08;;;24.69;37.70
72024;BME280;59889;50.700;5.440;2022-10-31T06:44:47;100394.54;;;24.69;37.73
72024;BME280;59889;50.700;5.440;2022-10-31T06:47:12;100391.44;;;24.50;37.53
72024;BME280;59889;50.700;5.440;2022-10-31T06:49:37;100388.49;;;24.60;37.51
72024;BME280;59889;50.700;5.440;2022-10-31T06:52:02;100385.44;;;24.65;37.29
72024;BME280;59889;50.700;5.440;2022-10-31T06:54:27;100383.88;;;24.90;37.26
72024;BME280;59889;50.700;5.440;2022-10-31T06:56:52;100388.17;;;24.70;37.07
72024;BME280;59889;50.700;5.440;2022-10-31T06:59:17;100392.10;;;24.67;36.97
72024;BME280;59889;50.700;5.440;2022-10-31T07:01:42;100390.36;;;24.06;36.97
72024;BME280;59889;50.700;5.440;2022-10-31T07:04:08;100398.84;;;24.60;36.68
72024;BME280;59889;50.700;5.440;2022-10-31T07:06:33;100402.04;;;24.51;36.11
72024;BME280;59889;50.700;5.440;2022-10-31T07:08:58;100400.79;;;24.49;35.73
72024;BME280;59889;50.700;5.440;2022-10-31T07:11:23;100399.79;;;24.67;35.56
72024;BME280;59889;50.700;5.440;2022-10-31T07:13:48;100400.84;;;23.93;35.31
72024;BME280;59889;50.700;5.440;2022-10-31T07:16:14;100401.64;;;24.44;34.97
72024;BME280;59889;50.700;5.440;2022-10-31T07:18:40;100403.68;;;24.60;34.97
72024;BME280;59889;50.700;5.440;2022-10-31T07:21:05;100405.05;;;24.37;34.89
72024;BME280;59889;50.700;5.440;2022-10-31T07:23:30;100410.28;;;24.66;34.79
72024;BME280;59889;50.700;5.440;2022-10-31T07:25:55;100415.33;;;24.55;34.33
72024;BME280;59889;50.700;5.440;2022-10-31T07:28:19;100417.77;;;24.56;34.79
72024;BME280;59889;50.700;5.440;2022-10-31T07:30:49;100416.00;;;24.36;35.23
72024;BME280;59889;50.700;5.440;2022-10-31T07:33:09;100409.83;;;24.31;35.57
72024;BME280;59889;50.700;5.440;2022-10-31T07:35:35;100404.67;;;24.39;35.68
72024;BME280;59889;50.700;5.440;2022-10-31T07:38:06;100401.80;;;24.62;35.79
72024;BME280;59889;50.700;5.440;2022-10-31T07:40:26;100404.66;;;24.35;35.96
72024;BME280;59889;50.700;5.440;2022-10-31T07:42:52;100411.43;;;24.69;35.89
72024;BME280;59889;50.700;5.440;2022-10-31T07:45:19;100411.87;;;24.35;35.67
72024;BME280;59889;50.700;5.440;2022-10-31T07:47:43;100396.84;;;24.04;35.74
72024;BME280;59889;50.700;5.440;2022-10-31T07:50:09;100385.37;;;24.28;35.78
72024;BME280;59889;50.700;5.440;2022-10-31T07:52:33;100382.56;;;24.61;35.74
72024;BME280;59889;50.700;5.440;2022-10-31T07:54:58;100379.88;;;24.36;35.96
72024;BME280;59889;50.700;5.440;2022-10-31T07:57:23;100378.21;;;24.65;35.90
72024;BME280;59889;50.700;5.440;2022-10-31T07:59:48;100377.94;;;24.28;36.33
72024;BME280;59889;50.700;5.440;2022-10-31T08:02:13;100379.65;;;24.59;36.03
72024;BME280;59889;50.700;5.440;2022-10-31T08:04:39;100385.23;;;24.47;35.84
72024;BME280;59889;50.700;5.440;2022-10-31T08:07:04;100392.07;;;24.26;36.28
72024;BME280;59889;50.700;5.440;2022-10-31T08:09:29;100393.93;;;24.63;36.25
72024;BME280;59889;50.700;5.440;2022-10-31T08:11:54;100392.34;;;24.33;36.44
72024;BME280;59889;50.700;5.440;2022-10-31T08:14:20;100388.05;;;24.68;36.32
72024;BME280;59889;50.700;5.440;2022-10-31T08:16:46;100383.46;;;24.44;36.30
72024;BME280;59889;50.700;5.440;2022-10-31T08:19:11;100378.19;;;24.31;36.51
72024;BME280;59889;50.700;5.440;2022-10-31T08:21:36;100375.16;;;24.30;36.50
72024;BME280;59889;50.700;5.440;2022-10-31T08:24:01;100373.43;;;24.36;36.46
72024;BME280;59889;50.700;5.440;2022-10-31T08:26:26;100367.44;;;24.67;36.31
72024;BME280;59889;50.700;5.440;2022-10-31T08:28:52;100360.99;;;24.31;36.42
72024;BME280;59889;50.700;5.440;2022-10-31T08:31:16;100360.51;;;24.62;36.22
72024;BME280;59889;50.700;5.440;2022-10-31T08:33:41;100356.95;;;24.02;36.27
72024;BME280;59889;50.700;5.440;2022-10-31T08:36:07;100356.39;;;24.60;36.05
72024;BME280;59889;50.700;5.440;2022-10-31T08:38:32;100355.10;;;24.70;36.27
72024;BME280;59889;50.700;5.440;2022-10-31T08:40:57;100349.71;;;24.50;36.37
72024;BME280;59889;50.700;5.440;2022-10-31T08:43:22;100348.03;;;24.55;36.07
72024;BME280;59889;50.700;5.440;2022-10-31T08:45:49;100345.54;;;24.34;36.11
72024;BME280;59889;50.700;5.440;2022-10-31T08:48:16;100343.31;;;24.52;35.93
72024;BME280;59889;50.700;5.440;2022-10-31T08:50:40;100334.39;;;24.36;35.70
72024;BME280;59889;50.700;5.440;2022-10-31T08:53:06;100328.29;;;24.22;35.71
72024;BME280;59889;50.700;5.440;2022-10-31T08:55:30;100330.93;;;24.25;35.54
72024;BME280;59889;50.700;5.440;2022-10-31T08:57:56;100327.72;;;24.20;35.71
72024;BME280;59889;50.700;5.440;2022-10-31T09:00:21;100318.97;;;24.12;35.73
72024;BME280;59889;50.700;5.440;2022-10-31T09:02:46;100309.94;;;24.23;34.99
72024;BME280;59889;50.700;5.440;2022-10-31T09:05:12;100311.64;;;24.04;34.86
72024;BME280;59889;50.700;5.440;2022-10-31T09:07:36;100304.36;;;24.28;34.55
72024;BME280;59889;50.700;5.440;2022-10-31T09:10:02;100302.24;;;24.54;34.98
72024;BME280;59889;50.700;5.440;2022-10-31T09:12:27;100309.53;;;24.35;35.06
72024;BME280;59889;50.700;5.440;2022-10-31T09:14:53;100299.45;;;23.19;36.84
72024;BME280;59889;50.700;5.440;2022-10-31T09:17:18;100293.74;;;24.19;35.29
72024;BME280;59889;50.700;5.440;2022-10-31T09:19:43;100289.41;;;24.48;35.28
72024;BME280;59889;50.700;5.440;2022-10-31T09:22:09;100293.19;;;24.58;35.22
72024;BME280;59889;50.700;5.440;2022-10-31T09:24:35;100294.92;;;24.76;35.25
72024;BME280;59889;50.700;5.440;2022-10-31T09:27:00;100293.29;;;24.35;35.42
72024;BME280;59889;50.700;5.440;2022-10-31T09:29:25;100290.77;;;24.29;35.39
72024;BME280;59889;50.700;5.440;2022-10-31T09:31:51;100288.13;;;24.43;35.29
72024;BME280;59889;50.700;5.440;2022-10-31T09:34:16;100280.96;;;24.51;35.70
72024;BME280;59889;50.700;5.440;2022-10-31T09:36:41;100278.13;;;24.28;35.74
72024;BME280;59889;50.700;5.440;2022-10-31T09:39:06;100273.59;;;24.28;35.99
72024;BME280;59889;50.700;5.440;2022-10-31T09:41:46;100280.50;;;24.42;35.76
72024;BME280;59889;50.700;5.440;2022-10-31T09:44:04;100280.94;;;24.18;35.60
72024;BME280;59889;50.700;5.440;2022-10-31T09:46:28;100277.41;;;24.15;35.53
72024;BME280;59889;50.700;5.440;2022-10-31T09:48:59;100273.85;;;24.49;35.71
72024;BME280;59889;50.700;5.440;2022-10-31T09:51:18;100272.12;;;24.43;35.81
72024;BME280;59889;50.700;5.440;2022-10-31T09:53:45;100271.72;;;24.27;35.75
72024;BME280;59889;50.700;5.440;2022-10-31T09:56:07;100271.30;;;24.40;35.58
72024;BME280;59889;50.700;5.440;2022-10-31T09:58:32;100269.99;;;24.37;35.66
72024;BME280;59889;50.700;5.440;2022-10-31T10:00:58;100267.10;;;24.46;35.52
72024;BME280;59889;50.700;5.440;2022-10-31T10:03:29;100259.74;;;24.41;35.59
72024;BME280;59889;50.700;5.440;2022-10-31T10:05:53;100252.28;;;24.15;35.75
72024;BME280;59889;50.700;5.440;2022-10-31T10:08:16;100251.69;;;24.56;35.25
72024;BME280;59889;50.700;5.440;2022-10-31T10:10:47;100253.37;;;24.47;35.05
72024;BME280;59889;50.700;5.440;2022-10-31T10:13:13;100252.53;;;24.44;34.97
72024;BME280;59889;50.700;5.440;2022-10-31T10:15:37;100251.55;;;24.17;34.81
72024;BME280;59889;50.700;5.440;2022-10-31T10:17:59;100247.28;;;24.45;34.77
72024;BME280;59889;50.700;5.440;2022-10-31T10:20:25;100244.99;;;24.45;34.87
72024;BME280;59889;50.700;5.440;2022-10-31T10:22:49;100245.20;;;24.13;34.80
72024;BME280;59889;50.700;5.440;2022-10-31T10:25:15;100246.34;;;24.22;34.65
72024;BME280;59889;50.700;5.440;2022-10-31T10:27:43;100246.10;;;24.13;34.86
72024;BME280;59889;50.700;5.440;2022-10-31T10:30:03;100248.93;;;24.52;34.89
72024;BME280;59889;50.700;5.440;2022-10-31T10:32:27;100249.44;;;24.31;34.79
72024;BME280;59889;50.700;5.440;2022-10-31T10:34:53;100243.81;;;24.26;35.36
72024;BME280;59889;50.700;5.440;2022-10-31T10:37:24;100238.27;;;24.28;35.61
72024;BME280;59889;50.700;5.440;2022-10-31T10:39:45;100236.21;;;24.09;35.73
72024;BME280;59889;50.700;5.440;2022-10-31T10:42:11;100234.52;;;24.57;35.55
72024;BME280;59889;50.700;5.440;2022-10-31T10:44:32;100235.81;;;24.36;35.59
72024;BME280;59889;50.700;5.440;2022-10-31T10:46:59;100234.52;;;24.27;35.65
72024;BME280;59889;50.700;5.440;2022-10-31T10:49:29;100226.68;;;24.14;35.35
72024;BME280;59889;50.700;5.440;2022-10-31T10:51:53;100219.60;;;24.02;35.60
72024;BME280;59889;50.700;5.440;2022-10-31T10:54:26;100211.62;;;24.32;35.37
72024;BME280;59889;50.700;5.440;2022-10-31T10:56:48;100206.77;;;24.05;35.29
72024;BME280;59889;50.700;5.440;2022-10-31T10:59:03;100202.08;;;24.43;35.16
72024;BME280;59889;50.700;5.440;2022-10-31T11:01:29;100200.04;;;24.41;35.22
72024;BME280;59889;50.700;5.440;2022-10-31T11:03:54;100198.49;;;24.10;35.30
72024;BME280;59889;50.700;5.440;2022-10-31T11:06:25;100190.74;;;24.14;35.21
72024;BME280;59889;50.700;5.440;2022-10-31T11:08:49;100182.62;;;24.27;35.25
72024;BME280;59889;50.700;5.440;2022-10-31T11:11:23;100177.37;;;24.25;35.36
72024;BME280;59889;50.700;5.440;2022-10-31T11:13:35;100171.07;;;24.32;35.24
72024;BME280;59889;50.700;5.440;2022-10-31T11:16:03;100167.22;;;24.23;35.37
72024;BME280;59889;50.700;5.440;2022-10-31T11:18:27;100159.68;;;24.56;35.29
72024;BME280;59889;50.700;5.440;2022-10-31T11:20:53;100154.16;;;24.00;35.43
72024;BME280;59889;50.700;5.440;2022-10-31T11:23:18;100154.54;;;24.36;35.29
72024;BME280;59889;50.700;5.440;2022-10-31T11:25:47;100149.74;;;24.33;35.34
72024;BME280;59889;50.700;5.440;2022-10-31T11:28:09;100147.57;;;24.38;35.28
72024;BME280;59889;50.700;5.440;2022-10-31T11:30:42;100143.94;;;24.36;35.26
72024;BME280;59889;50.700;5.440;2022-10-31T11:32:58;100138.27;;;24.31;35.26
72024;BME280;59889;50.700;5.440;2022-10-31T11:35:24;100133.15;;;24.40;35.15
72024;BME280;59889;50.700;5.440;2022-10-31T11:37:49;100130.97;;;24.10;35.24
72024;BME280;59889;50.700;5.440;2022-10-31T11:40:17;100121.65;;;24.10;35.36
72024;BME280;59889;50.700;5.440;2022-10-31T11:42:39;100112.74;;;24.65;35.58
72024;BME280;59889;50.700;5.440;2022-10-31T11:45:07;100106.89;;;24.65;35.73
72024;BME280;59889;50.700;5.440;2022-10-31T11:47:29;100098.35;;;24.42;35.65
72024;BME280;59889;50.700;5.440;2022-10-31T11:49:53;100092.68;;;24.46;35.65
72024;BME280;59889;50.700;5.440;2022-10-31T11:52:20;100088.52;;;24.25;36.13
72024;BME280;59889;50.700;5.440;2022-10-31T11:54:47;100087.79;;;24.36;36.06
72024;BME280;59889;50.700;5.440;2022-10-31T11:57:24;100082.67;;;24.48;36.13
72024;BME280;59889;50.700;5.440;2022-10-31T11:59:38;100076.33;;;24.24;35.97
72024;BME280;59889;50.700;5.440;2022-10-31T12:02:01;100064.92;;;24.33;35.81
72024;BME280;59889;50.700;5.440;2022-10-31T12:04:34;100062.85;;;24.60;35.72
72024;BME280;59889;50.700;5.440;2022-10-31T12:06:54;100058.32;;;24.44;35.49
72024;BME280;59889;50.700;5.440;2022-10-31T12:09:20;100052.61;;;24.31;35.61
72024;BME280;59889;50.700;5.440;2022-10-31T12:11:51;100045.71;;;24.62;35.45
72024;BME280;59889;50.700;5.440;2022-10-31T12:14:17;100029.16;;;24.41;35.37
72024;BME280;59889;50.700;5.440;2022-10-31T12:16:35;100023.55;;;24.81;35.52
72024;BME280;59889;50.700;5.440;2022-10-31T12:19:00;100019.88;;;24.61;35.50
72024;BME280;59889;50.700;5.440;2022-10-31T12:21:42;100018.81;;;24.43;35.20
72024;BME280;59889;50.700;5.440;2022-10-31T12:23:57;100013.28;;;24.62;35.22
72024;BME280;59889;50.700;5.440;2022-10-31T12:26:17;100010.96;;;24.50;35.30
72024;BME280;59889;50.700;5.440;2022-10-31T12:28:49;100007.80;;;24.41;35.01
72024;BME280;59889;50.700;5.440;2022-10-31T12:31:13;100005.81;;;24.82;35.17
72024;BME280;59889;50.700;5.440;2022-10-31T12:33:40;99993.78;;;24.75;35.06
72024;BME280;59889;50.700;5.440;2022-10-31T12:36:05;99985.58;;;24.68;35.13
72024;BME280;59889;50.700;5.440;2022-10-31T12:38:32;99978.59;;;24.66;35.16